sensor_id;sensor_type;location;lat;lon;timestamp;P1;durP1;ratioP1;P2;durP2;ratioP2
46355;SDS011;32066;49.474;11.106;2023-02-01T00:02:02;8.18;;;3.55;;
46355;SDS011;32066;49.474;11.106;2023-02-01T00:04:29;6.80;;;3.88;;
46355;SDS011;32066;49.474;11.106;2023-02-01T00:06:58;7.05;;;3.80;;
46355;SDS011;32066;49.474;11.106;2023-02-01T00:09:25;7.18;;;3.67;;
46355;SDS011;32066;49.474;11.106;2023-02-01T00:11:52;6.07;;;4.05;;
46355;SDS011;32066;49.474;11.106;2023-02-01T00:14:19;7.03;;;3.78;;
46355;SDS011;32066;49.474;11.106;2023-02-01T00:16:46;8.15;;;3.85;;
46355;SDS011;32066;49.474;11.106;2023-02-01T00:19:14;7.25;;;4.55;;
46355;SDS011;32066;49.474;11.106;2023-02-01T00:21:41;6.03;;;3.47;;
46355;SDS011;32066;49.474;11.106;2023-02-01T00:24:10;8.45;;;4.25;;
46355;SDS011;32066;49.474;11.106;2023-02-01T00:26:39;7.18;;;4.32;;
46355;SDS011;32066;49.474;11.106;2023-02-01T00:29:09;8.40;;;4.32;;
46355;SDS011;32066;49.474;11.106;2023-02-01T00:31:37;8.13;;;4.13;;
46355;SDS011;32066;49.474;11.106;2023-02-01T00:34:04;6.70;;;4.43;;
46355;SDS011;32066;49.474;11.106;2023-02-01T00:36:31;7.22;;;4.25;;
46355;SDS011;32066;49.474;11.106;2023-02-01T00:38:58;7.53;;;4.53;;
46355;SDS011;32066;49.474;11.106;2023-02-01T00:41:27;6.97;;;4.20;;
46355;SDS011;32066;49.474;11.106;2023-02-01T00:43:54;8.00;;;3.95;;
46355;SDS011;32066;49.474;11.106;2023-02-01T00:46:21;6.97;;;4.20;;
46355;SDS011;32066;49.474;11.106;2023-02-01T00:48:48;7.38;;;4.20;;
46355;SDS011;32066;49.474;11.106;2023-02-01T00:51:15;7.30;;;4.35;;
46355;SDS011;32066;49.474;11.106;2023-02-01T00:53:43;7.60;;;4.55;;
46355;SDS011;32066;49.474;11.106;2023-02-01T00:56:10;7.60;;;4.07;;
46355;SDS011;32066;49.474;11.106;2023-02-01T00:58:39;7.13;;;4.20;;
46355;SDS011;32066;49.474;11.106;2023-02-01T01:01:07;6.32;;;3.90;;
46355;SDS011;32066;49.474;11.106;2023-02-01T01:03:36;7.50;;;4.32;;
46355;SDS011;32066;49.474;11.106;2023-02-01T01:06:05;6.35;;;4.00;;
46355;SDS011;32066;49.474;11.106;2023-02-01T01:08:34;6.60;;;3.85;;
46355;SDS011;32066;49.474;11.106;2023-02-01T01:11:03;6.60;;;3.85;;
46355;SDS011;32066;49.474;11.106;2023-02-01T01:13:31;6.38;;;3.80;;
46355;SDS011;32066;49.474;11.106;2023-02-01T01:16:00;7.25;;;4.47;;
46355;SDS011;32066;49.474;11.106;2023-02-01T01:18:29;6.53;;;4.05;;
46355;SDS011;32066;49.474;11.106;2023-02-01T01:20:57;6.38;;;3.85;;
46355;SDS011;32066;49.474;11.106;2023-02-01T01:23:24;7.50;;;4.32;;
46355;SDS011;32066;49.474;11.106;2023-02-01T01:25:52;7.70;;;4.10;;
46355;SDS011;32066;49.474;11.106;2023-02-01T01:28:19;8.18;;;4.30;;
46355;SDS011;32066;49.474;11.106;2023-02-01T01:30:46;8.65;;;4.50;;
46355;SDS011;32066;49.474;11.106;2023-02-01T01:33:14;6.88;;;3.80;;
46355;SDS011;32066;49.474;11.106;2023-02-01T01:35:41;8.25;;;4.90;;
46355;SDS011;32066;49.474;11.106;2023-02-01T01:38:08;7.20;;;4.00;;
46355;SDS011;32066;49.474;11.106;2023-02-01T01:40:37;7.30;;;4.10;;
46355;SDS011;32066;49.474;11.106;2023-02-01T01:43:05;6.88;;;4.13;;
46355;SDS011;32066;49.474;11.106;2023-02-01T01:45:39;9.02;;;4.70;;
46355;SDS011;32066;49.474;11.106;2023-02-01T01:48:07;7.22;;;4.07;;
46355;SDS011;32066;49.474;11.106;2023-02-01T01:50:42;7.63;;;3.65;;
46355;SDS011;32066;49.474;11.106;2023-02-01T01:53:14;9.05;;;4.30;;
46355;SDS011;32066;49.474;11.106;2023-02-01T01:55:44;8.45;;;4.13;;
46355;SDS011;32066;49.474;11.106;2023-02-01T01:58:14;9.07;;;4.55;;
46355;SDS011;32066;49.474;11.106;2023-02-01T02:00:43;7.32;;;3.70;;
46355;SDS011;32066;49.474;11.106;2023-02-01T02:03:11;6.43;;;3.95;;
46355;SDS011;32066;49.474;11.106;2023-02-01T02:05:43;7.30;;;3.83;;
46355;SDS011;32066;49.474;11.106;2023-02-01T02:08:11;6.85;;;3.90;;
46355;SDS011;32066;49.474;11.106;2023-02-01T02:10:38;6.93;;;4.25;;
46355;SDS011;32066;49.474;11.106;2023-02-01T02:13:25;6.63;;;3.97;;
46355;SDS011;32066;49.474;11.106;2023-02-01T02:15:57;6.82;;;3.75;;
46355;SDS011;32066;49.474;11.106;2023-02-01T02:18:38;6.03;;;3.38;;
46355;SDS011;32066;49.474;11.106;2023-02-01T02:21:17;6.60;;;4.03;;
46355;SDS011;32066;49.474;11.106;2023-02-01T02:24:07;6.63;;;4.07;;
46355;SDS011;32066;49.474;11.106;2023-02-01T02:32:59;6.38;;;3.30;;
46355;SDS011;32066;49.474;11.106;2023-02-01T02:35:46;6.40;;;3.60;;
46355;SDS011;32066;49.474;11.106;2023-02-01T02:38:23;7.30;;;3.78;;
46355;SDS011;32066;49.474;11.106;2023-02-01T02:40:57;7.20;;;3.55;;
46355;SDS011;32066;49.474;11.106;2023-02-01T02:43:59;6.55;;;3.75;;
46355;SDS011;32066;49.474;11.106;2023-02-01T02:46:51;6.20;;;3.67;;
46355;SDS011;32066;49.474;11.106;2023-02-01T02:52:11;7.20;;;3.72;;
46355;SDS011;32066;49.474;11.106;2023-02-01T02:55:00;5.95;;;3.90;;
46355;SDS011;32066;49.474;11.106;2023-02-01T02:57:32;6.55;;;3.90;;
46355;SDS011;32066;49.474;11.106;2023-02-01T03:00:21;7.50;;;3.70;;
46355;SDS011;32066;49.474;11.106;2023-02-01T03:03:10;7.43;;;4.20;;
46355;SDS011;32066;49.474;11.106;2023-02-01T03:05:55;6.60;;;3.78;;
46355;SDS011;32066;49.474;11.106;2023-02-01T03:08:24;6.40;;;3.90;;
46355;SDS011;32066;49.474;11.106;2023-02-01T03:10:53;7.05;;;4.25;;
46355;SDS011;32066;49.474;11.106;2023-02-01T03:13:26;8.20;;;4.40;;
46355;SDS011;32066;49.474;11.106;2023-02-01T03:15:59;8.38;;;4.22;;
46355;SDS011;32066;49.474;11.106;2023-02-01T03:18:30;7.10;;;3.83;;
46355;SDS011;32066;49.474;11.106;2023-02-01T03:21:04;8.90;;;4.50;;
46355;SDS011;32066;49.474;11.106;2023-02-01T03:23:36;6.75;;;4.00;;
46355;SDS011;32066;49.474;11.106;2023-02-01T03:26:04;6.82;;;4.20;;
46355;SDS011;32066;49.474;11.106;2023-02-01T03:28:35;6.13;;;4.07;;
46355;SDS011;32066;49.474;11.106;2023-02-01T03:31:05;6.75;;;3.97;;
46355;SDS011;32066;49.474;11.106;2023-02-01T03:33:33;7.95;;;3.75;;
46355;SDS011;32066;49.474;11.106;2023-02-01T03:36:02;7.03;;;4.05;;
46355;SDS011;32066;49.474;11.106;2023-02-01T03:38:39;6.15;;;4.05;;
46355;SDS011;32066;49.474;11.106;2023-02-01T03:41:21;6.38;;;4.07;;
46355;SDS011;32066;49.474;11.106;2023-02-01T03:43:53;7.28;;;4.38;;
46355;SDS011;32066;49.474;11.106;2023-02-01T03:46:26;6.35;;;4.15;;
46355;SDS011;32066;49.474;11.106;2023-02-01T03:48:59;7.45;;;4.55;;
46355;SDS011;32066;49.474;11.106;2023-02-01T03:51:29;7.45;;;4.47;;
46355;SDS011;32066;49.474;11.106;2023-02-01T03:53:59;8.32;;;4.47;;
46355;SDS011;32066;49.474;11.106;2023-02-01T03:56:30;8.25;;;4.57;;
46355;SDS011;32066;49.474;11.106;2023-02-01T03:58:59;7.65;;;4.70;;
46355;SDS011;32066;49.474;11.106;2023-02-01T04:01:31;7.97;;;4.95;;
46355;SDS011;32066;49.474;11.106;2023-02-01T04:03:58;9.27;;;4.72;;
46355;SDS011;32066;49.474;11.106;2023-02-01T04:06:25;7.32;;;4.80;;
46355;SDS011;32066;49.474;11.106;2023-02-01T04:08:56;9.10;;;4.82;;
46355;SDS011;32066;49.474;11.106;2023-02-01T04:11:24;9.82;;;6.00;;
46355;SDS011;32066;49.474;11.106;2023-02-01T04:13:52;7.75;;;4.70;;
46355;SDS011;32066;49.474;11.106;2023-02-01T04:16:19;10.90;;;5.47;;
46355;SDS011;32066;49.474;11.106;2023-02-01T04:18:46;8.05;;;4.88;;
46355;SDS011;32066;49.474;11.106;2023-02-01T04:21:12;7.93;;;5.20;;
46355;SDS011;32066;49.474;11.106;2023-02-01T04:23:39;9.63;;;5.30;;
46355;SDS011;32066;49.474;11.106;2023-02-01T04:26:06;8.30;;;4.82;;
46355;SDS011;32066;49.474;11.106;2023-02-01T04:28:34;10.73;;;5.18;;
46355;SDS011;32066;49.474;11.106;2023-02-01T04:31:01;9.13;;;5.15;;
46355;SDS011;32066;49.474;11.106;2023-02-01T04:33:28;7.65;;;5.10;;
46355;SDS011;32066;49.474;11.106;2023-02-01T04:35:55;8.88;;;4.97;;
46355;SDS011;32066;49.474;11.106;2023-02-01T04:38:22;10.50;;;5.05;;
46355;SDS011;32066;49.474;11.106;2023-02-01T04:40:49;7.43;;;4.85;;
46355;SDS011;32066;49.474;11.106;2023-02-01T04:43:16;8.13;;;4.82;;
46355;SDS011;32066;49.474;11.106;2023-02-01T04:45:47;7.90;;;4.97;;
46355;SDS011;32066;49.474;11.106;2023-02-01T04:48:14;8.18;;;5.07;;
46355;SDS011;32066;49.474;11.106;2023-02-01T04:50:42;10.55;;;5.18;;
46355;SDS011;32066;49.474;11.106;2023-02-01T04:53:12;8.38;;;4.65;;
46355;SDS011;32066;49.474;11.106;2023-02-01T04:55:39;9.13;;;5.07;;
46355;SDS011;32066;49.474;11.106;2023-02-01T04:58:06;7.10;;;4.88;;
46355;SDS011;32066;49.474;11.106;2023-02-01T05:00:33;7.18;;;4.72;;
46355;SDS011;32066;49.474;11.106;2023-02-01T05:03:01;7.90;;;4.65;;
46355;SDS011;32066;49.474;11.106;2023-02-01T05:05:28;8.85;;;5.15;;
46355;SDS011;32066;49.474;11.106;2023-02-01T05:07:55;8.20;;;4.95;;
46355;SDS011;32066;49.474;11.106;2023-02-01T05:10:22;8.00;;;4.78;;
46355;SDS011;32066;49.474;11.106;2023-02-01T05:12:49;7.30;;;4.85;;
46355;SDS011;32066;49.474;11.106;2023-02-01T05:15:33;7.70;;;4.72;;
46355;SDS011;32066;49.474;11.106;2023-02-01T05:18:01;9.07;;;5.25;;
46355;SDS011;32066;49.474;11.106;2023-02-01T05:20:28;8.05;;;5.05;;
46355;SDS011;32066;49.474;11.106;2023-02-01T05:22:54;9.95;;;4.75;;
46355;SDS011;32066;49.474;11.106;2023-02-01T05:25:21;7.15;;;4.72;;
46355;SDS011;32066;49.474;11.106;2023-02-01T05:27:48;8.40;;;5.00;;
46355;SDS011;32066;49.474;11.106;2023-02-01T05:30:15;7.95;;;4.72;;
46355;SDS011;32066;49.474;11.106;2023-02-01T05:32:42;6.55;;;3.78;;
46355;SDS011;32066;49.474;11.106;2023-02-01T05:35:10;9.75;;;3.80;;
46355;SDS011;32066;49.474;11.106;2023-02-01T05:37:37;7.30;;;3.63;;
46355;SDS011;32066;49.474;11.106;2023-02-01T05:40:05;6.22;;;3.83;;
46355;SDS011;32066;49.474;11.106;2023-02-01T05:42:32;6.63;;;3.70;;
46355;SDS011;32066;49.474;11.106;2023-02-01T05:44:59;6.63;;;3.80;;
46355;SDS011;32066;49.474;11.106;2023-02-01T05:47:26;6.80;;;3.97;;
46355;SDS011;32066;49.474;11.106;2023-02-01T05:49:53;6.25;;;3.90;;
46355;SDS011;32066;49.474;11.106;2023-02-01T05:52:21;7.35;;;4.30;;
46355;SDS011;32066;49.474;11.106;2023-02-01T05:54:48;8.63;;;4.50;;
46355;SDS011;32066;49.474;11.106;2023-02-01T05:57:14;8.40;;;4.13;;
46355;SDS011;32066;49.474;11.106;2023-02-01T05:59:42;7.95;;;3.80;;
46355;SDS011;32066;49.474;11.106;2023-02-01T06:02:09;7.07;;;3.90;;
46355;SDS011;32066;49.474;11.106;2023-02-01T06:04:37;6.05;;;3.20;;
46355;SDS011;32066;49.474;11.106;2023-02-01T06:07:04;6.75;;;3.50;;
46355;SDS011;32066;49.474;11.106;2023-02-01T06:09:34;5.53;;;3.20;;
46355;SDS011;32066;49.474;11.106;2023-02-01T06:12:01;5.97;;;3.10;;
46355;SDS011;32066;49.474;11.106;2023-02-01T06:14:28;7.57;;;2.97;;
46355;SDS011;32066;49.474;11.106;2023-02-01T06:16:55;7.07;;;2.90;;
46355;SDS011;32066;49.474;11.106;2023-02-01T06:19:22;4.55;;;2.35;;
46355;SDS011;32066;49.474;11.106;2023-02-01T06:21:49;5.00;;;2.03;;
46355;SDS011;32066;49.474;11.106;2023-02-01T06:24:16;4.78;;;2.30;;
46355;SDS011;32066;49.474;11.106;2023-02-01T06:26:44;5.32;;;2.20;;
46355;SDS011;32066;49.474;11.106;2023-02-01T06:29:11;7.03;;;2.17;;
46355;SDS011;32066;49.474;11.106;2023-02-01T06:31:38;5.40;;;1.90;;
46355;SDS011;32066;49.474;11.106;2023-02-01T06:34:07;4.63;;;2.00;;
46355;SDS011;32066;49.474;11.106;2023-02-01T06:36:34;6.50;;;2.30;;
46355;SDS011;32066;49.474;11.106;2023-02-01T06:39:01;4.07;;;2.10;;
46355;SDS011;32066;49.474;11.106;2023-02-01T06:41:28;3.97;;;1.98;;
46355;SDS011;32066;49.474;11.106;2023-02-01T06:43:56;4.75;;;1.92;;
46355;SDS011;32066;49.474;11.106;2023-02-01T06:46:23;4.90;;;2.00;;
46355;SDS011;32066;49.474;11.106;2023-02-01T06:48:49;4.60;;;2.38;;
46355;SDS011;32066;49.474;11.106;2023-02-01T06:51:20;5.75;;;2.17;;
46355;SDS011;32066;49.474;11.106;2023-02-01T06:53:48;4.60;;;2.47;;
46355;SDS011;32066;49.474;11.106;2023-02-01T06:56:14;4.32;;;2.13;;
46355;SDS011;32066;49.474;11.106;2023-02-01T06:58:41;4.13;;;2.20;;
46355;SDS011;32066;49.474;11.106;2023-02-01T07:01:10;4.00;;;1.90;;
46355;SDS011;32066;49.474;11.106;2023-02-01T07:03:37;4.00;;;2.00;;
46355;SDS011;32066;49.474;11.106;2023-02-01T07:06:04;5.40;;;2.33;;
46355;SDS011;32066;49.474;11.106;2023-02-01T07:08:33;4.60;;;2.00;;
46355;SDS011;32066;49.474;11.106;2023-02-01T07:11:01;4.65;;;2.17;;
46355;SDS011;32066;49.474;11.106;2023-02-01T07:13:29;4.45;;;2.20;;
46355;SDS011;32066;49.474;11.106;2023-02-01T07:15:57;6.05;;;2.13;;
46355;SDS011;32066;49.474;11.106;2023-02-01T07:18:26;5.68;;;2.20;;
46355;SDS011;32066;49.474;11.106;2023-02-01T07:20:54;4.03;;;2.05;;
46355;SDS011;32066;49.474;11.106;2023-02-01T07:23:21;5.25;;;2.05;;
46355;SDS011;32066;49.474;11.106;2023-02-01T07:25:52;4.35;;;2.20;;
46355;SDS011;32066;49.474;11.106;2023-02-01T07:28:19;5.78;;;2.40;;
46355;SDS011;32066;49.474;11.106;2023-02-01T07:30:47;4.43;;;2.10;;
46355;SDS011;32066;49.474;11.106;2023-02-01T07:33:17;4.70;;;2.03;;
46355;SDS011;32066;49.474;11.106;2023-02-01T07:35:46;4.05;;;1.90;;
46355;SDS011;32066;49.474;11.106;2023-02-01T07:38:13;4.30;;;2.30;;
46355;SDS011;32066;49.474;11.106;2023-02-01T07:40:40;5.20;;;2.40;;
46355;SDS011;32066;49.474;11.106;2023-02-01T07:43:07;6.97;;;2.30;;
46355;SDS011;32066;49.474;11.106;2023-02-01T07:45:34;5.03;;;2.38;;
46355;SDS011;32066;49.474;11.106;2023-02-01T07:48:01;5.78;;;2.63;;
46355;SDS011;32066;49.474;11.106;2023-02-01T07:50:28;5.05;;;2.28;;
46355;SDS011;32066;49.474;11.106;2023-02-01T07:52:56;5.32;;;2.30;;
46355;SDS011;32066;49.474;11.106;2023-02-01T07:55:25;7.45;;;2.53;;
46355;SDS011;32066;49.474;11.106;2023-02-01T07:57:52;6.40;;;2.50;;
46355;SDS011;32066;49.474;11.106;2023-02-01T08:00:19;5.28;;;2.40;;
46355;SDS011;32066;49.474;11.106;2023-02-01T08:03:04;5.15;;;2.17;;
46355;SDS011;32066;49.474;11.106;2023-02-01T08:05:31;6.20;;;2.47;;
46355;SDS011;32066;49.474;11.106;2023-02-01T08:07:59;6.35;;;2.55;;
46355;SDS011;32066;49.474;11.106;2023-02-01T08:10:26;4.80;;;2.30;;
46355;SDS011;32066;49.474;11.106;2023-02-01T08:12:57;4.97;;;2.10;;
46355;SDS011;32066;49.474;11.106;2023-02-01T08:15:25;7.82;;;2.58;;
46355;SDS011;32066;49.474;11.106;2023-02-01T08:17:52;6.07;;;2.45;;
46355;SDS011;32066;49.474;11.106;2023-02-01T08:20:20;10.65;;;2.38;;
46355;SDS011;32066;49.474;11.106;2023-02-01T08:22:48;8.05;;;2.50;;
46355;SDS011;32066;49.474;11.106;2023-02-01T08:25:17;7.10;;;2.45;;
46355;SDS011;32066;49.474;11.106;2023-02-01T08:27:44;5.03;;;2.10;;
46355;SDS011;32066;49.474;11.106;2023-02-01T08:30:11;7.28;;;2.53;;
46355;SDS011;32066;49.474;11.106;2023-02-01T08:32:39;7.10;;;2.60;;
46355;SDS011;32066;49.474;11.106;2023-02-01T08:35:06;5.40;;;2.15;;
46355;SDS011;32066;49.474;11.106;2023-02-01T08:37:33;8.55;;;3.08;;
46355;SDS011;32066;49.474;11.106;2023-02-01T08:40:00;6.20;;;1.92;;
46355;SDS011;32066;49.474;11.106;2023-02-01T08:42:28;7.55;;;2.53;;
46355;SDS011;32066;49.474;11.106;2023-02-01T08:45:13;6.43;;;1.95;;
46355;SDS011;32066;49.474;11.106;2023-02-01T08:47:40;7.13;;;2.50;;
46355;SDS011;32066;49.474;11.106;2023-02-01T08:50:07;5.85;;;2.28;;
46355;SDS011;32066;49.474;11.106;2023-02-01T08:52:35;8.07;;;2.17;;
46355;SDS011;32066;49.474;11.106;2023-02-01T08:55:06;12.10;;;2.65;;
46355;SDS011;32066;49.474;11.106;2023-02-01T08:57:44;5.93;;;2.15;;
46355;SDS011;32066;49.474;11.106;2023-02-01T09:00:19;9.25;;;2.13;;
46355;SDS011;32066;49.474;11.106;2023-02-01T09:03:22;6.97;;;2.35;;
46355;SDS011;32066;49.474;11.106;2023-02-01T09:06:16;6.72;;;2.40;;
46355;SDS011;32066;49.474;11.106;2023-02-01T09:12:39;7.97;;;2.58;;
46355;SDS011;32066;49.474;11.106;2023-02-01T09:15:43;7.13;;;2.75;;
46355;SDS011;32066;49.474;11.106;2023-02-01T09:18:18;8.52;;;2.78;;
46355;SDS011;32066;49.474;11.106;2023-02-01T09:21:16;8.20;;;2.75;;
46355;SDS011;32066;49.474;11.106;2023-02-01T09:24:02;6.75;;;2.70;;
46355;SDS011;32066;49.474;11.106;2023-02-01T09:26:41;8.93;;;2.80;;
46355;SDS011;32066;49.474;11.106;2023-02-01T09:29:39;8.38;;;2.38;;
46355;SDS011;32066;49.474;11.106;2023-02-01T09:38:54;8.52;;;2.60;;
46355;SDS011;32066;49.474;11.106;2023-02-01T09:41:35;10.13;;;1.95;;
46355;SDS011;32066;49.474;11.106;2023-02-01T09:44:35;8.57;;;1.80;;
46355;SDS011;32066;49.474;11.106;2023-02-01T09:47:28;8.48;;;1.77;;
46355;SDS011;32066;49.474;11.106;2023-02-01T09:50:38;8.40;;;2.00;;
46355;SDS011;32066;49.474;11.106;2023-02-01T09:53:12;10.60;;;2.30;;
46355;SDS011;32066;49.474;11.106;2023-02-01T09:56:12;6.28;;;1.88;;
46355;SDS011;32066;49.474;11.106;2023-02-01T09:59:20;6.13;;;1.40;;
46355;SDS011;32066;49.474;11.106;2023-02-01T10:02:27;11.60;;;2.03;;
46355;SDS011;32066;49.474;11.106;2023-02-01T10:05:23;6.97;;;1.67;;
46355;SDS011;32066;49.474;11.106;2023-02-01T10:08:33;9.82;;;2.00;;
46355;SDS011;32066;49.474;11.106;2023-02-01T10:11:36;7.30;;;1.77;;
46355;SDS011;32066;49.474;11.106;2023-02-01T10:18:42;7.53;;;1.80;;
46355;SDS011;32066;49.474;11.106;2023-02-01T10:21:42;8.02;;;2.08;;
46355;SDS011;32066;49.474;11.106;2023-02-01T10:25:03;8.20;;;2.13;;
46355;SDS011;32066;49.474;11.106;2023-02-01T10:27:36;7.65;;;2.40;;
46355;SDS011;32066;49.474;11.106;2023-02-01T10:30:14;7.15;;;2.30;;
46355;SDS011;32066;49.474;11.106;2023-02-01T10:32:47;11.50;;;2.53;;
46355;SDS011;32066;49.474;11.106;2023-02-01T10:35:22;7.20;;;2.35;;
46355;SDS011;32066;49.474;11.106;2023-02-01T10:37:55;6.35;;;2.05;;
46355;SDS011;32066;49.474;11.106;2023-02-01T10:40:26;6.85;;;2.42;;
46355;SDS011;32066;49.474;11.106;2023-02-01T10:42:54;10.82;;;2.95;;
46355;SDS011;32066;49.474;11.106;2023-02-01T10:45:26;6.47;;;2.60;;
46355;SDS011;32066;49.474;11.106;2023-02-01T10:47:56;10.18;;;3.17;;
46355;SDS011;32066;49.474;11.106;2023-02-01T10:50:30;12.27;;;3.10;;
46355;SDS011;32066;49.474;11.106;2023-02-01T10:53:06;12.40;;;3.72;;
46355;SDS011;32066;49.474;11.106;2023-02-01T10:55:39;11.80;;;3.42;;
46355;SDS011;32066;49.474;11.106;2023-02-01T10:58:14;8.93;;;3.30;;
46355;SDS011;32066;49.474;11.106;2023-02-01T11:00:44;11.13;;;3.33;;
46355;SDS011;32066;49.474;11.106;2023-02-01T11:03:33;11.15;;;3.28;;
46355;SDS011;32066;49.474;11.106;2023-02-01T11:06:04;10.55;;;3.03;;
46355;SDS011;32066;49.474;11.106;2023-02-01T11:08:43;7.50;;;2.92;;
46355;SDS011;32066;49.474;11.106;2023-02-01T11:11:13;9.38;;;3.10;;
46355;SDS011;32066;49.474;11.106;2023-02-01T11:13:45;9.85;;;3.25;;
46355;SDS011;32066;49.474;11.106;2023-02-01T11:16:20;10.05;;;3.10;;
46355;SDS011;32066;49.474;11.106;2023-02-01T11:18:52;12.65;;;3.10;;
46355;SDS011;32066;49.474;11.106;2023-02-01T11:21:21;9.77;;;2.83;;
46355;SDS011;32066;49.474;11.106;2023-02-01T11:23:53;9.73;;;3.15;;
46355;SDS011;32066;49.474;11.106;2023-02-01T11:26:21;12.68;;;3.25;;
46355;SDS011;32066;49.474;11.106;2023-02-01T11:28:52;10.73;;;2.90;;
46355;SDS011;32066;49.474;11.106;2023-02-01T11:31:23;9.13;;;3.30;;
46355;SDS011;32066;49.474;11.106;2023-02-01T11:33:53;12.07;;;3.47;;
46355;SDS011;32066;49.474;11.106;2023-02-01T11:36:26;10.35;;;3.33;;
46355;SDS011;32066;49.474;11.106;2023-02-01T11:39:09;11.57;;;3.42;;
46355;SDS011;32066;49.474;11.106;2023-02-01T11:41:54;10.57;;;3.63;;
46355;SDS011;32066;49.474;11.106;2023-02-01T11:44:30;8.65;;;3.00;;
46355;SDS011;32066;49.474;11.106;2023-02-01T11:47:22;16.88;;;3.55;;
46355;SDS011;32066;49.474;11.106;2023-02-01T11:49:52;11.20;;;2.67;;
46355;SDS011;32066;49.474;11.106;2023-02-01T11:52:34;12.45;;;2.92;;
46355;SDS011;32066;49.474;11.106;2023-02-01T11:58:06;11.50;;;3.13;;
46355;SDS011;32066;49.474;11.106;2023-02-01T12:00:53;9.05;;;3.13;;
46355;SDS011;32066;49.474;11.106;2023-02-01T12:06:43;10.63;;;3.00;;
46355;SDS011;32066;49.474;11.106;2023-02-01T12:09:30;12.23;;;3.35;;
46355;SDS011;32066;49.474;11.106;2023-02-01T12:12:16;7.68;;;2.63;;
46355;SDS011;32066;49.474;11.106;2023-02-01T12:14:56;10.70;;;3.63;;
46355;SDS011;32066;49.474;11.106;2023-02-01T12:17:51;10.48;;;2.90;;
46355;SDS011;32066;49.474;11.106;2023-02-01T12:20:31;11.95;;;2.95;;
46355;SDS011;32066;49.474;11.106;2023-02-01T12:23:20;9.50;;;3.03;;
46355;SDS011;32066;49.474;11.106;2023-02-01T12:26:05;9.15;;;2.85;;
46355;SDS011;32066;49.474;11.106;2023-02-01T12:28:52;11.38;;;3.42;;
46355;SDS011;32066;49.474;11.106;2023-02-01T12:31:39;9.13;;;2.88;;
46355;SDS011;32066;49.474;11.106;2023-02-01T12:36:58;11.50;;;2.67;;
46355;SDS011;32066;49.474;11.106;2023-02-01T12:39:38;9.88;;;2.50;;
46355;SDS011;32066;49.474;11.106;2023-02-01T12:42:09;8.02;;;2.88;;
46355;SDS011;32066;49.474;11.106;2023-02-01T12:47:16;14.15;;;2.85;;
46355;SDS011;32066;49.474;11.106;2023-02-01T12:49:48;11.55;;;2.90;;
46355;SDS011;32066;49.474;11.106;2023-02-01T12:52:24;9.65;;;3.13;;
46355;SDS011;32066;49.474;11.106;2023-02-01T12:55:01;10.98;;;3.00;;
46355;SDS011;32066;49.474;11.106;2023-02-01T12:57:35;10.10;;;3.10;;
46355;SDS011;32066;49.474;11.106;2023-02-01T13:00:12;10.85;;;2.78;;
46355;SDS011;32066;49.474;11.106;2023-02-01T13:02:50;13.00;;;3.00;;
46355;SDS011;32066;49.474;11.106;2023-02-01T13:05:27;10.35;;;2.55;;
46355;SDS011;32066;49.474;11.106;2023-02-01T13:07:59;13.00;;;2.72;;
46355;SDS011;32066;49.474;11.106;2023-02-01T13:10:31;10.63;;;2.78;;
46355;SDS011;32066;49.474;11.106;2023-02-01T13:13:04;12.13;;;2.90;;
46355;SDS011;32066;49.474;11.106;2023-02-01T13:15:41;9.75;;;2.90;;
46355;SDS011;32066;49.474;11.106;2023-02-01T13:18:14;12.75;;;2.67;;
46355;SDS011;32066;49.474;11.106;2023-02-01T13:20:50;12.25;;;3.03;;
46355;SDS011;32066;49.474;11.106;2023-02-01T13:23:25;11.60;;;3.85;;
46355;SDS011;32066;49.474;11.106;2023-02-01T13:25:54;8.88;;;2.80;;
46355;SDS011;32066;49.474;11.106;2023-02-01T13:28:25;10.70;;;2.60;;
46355;SDS011;32066;49.474;11.106;2023-02-01T13:31:03;14.52;;;3.65;;
46355;SDS011;32066;49.474;11.106;2023-02-01T13:33:58;11.38;;;2.97;;
46355;SDS011;32066;49.474;11.106;2023-02-01T13:36:56;11.95;;;3.10;;
46355;SDS011;32066;49.474;11.106;2023-02-01T13:39:39;9.13;;;2.85;;
46355;SDS011;32066;49.474;11.106;2023-02-01T13:42:14;11.35;;;3.20;;
46355;SDS011;32066;49.474;11.106;2023-02-01T13:48:39;10.00;;;2.95;;
46355;SDS011;32066;49.474;11.106;2023-02-01T13:51:35;10.88;;;3.42;;
46355;SDS011;32066;49.474;11.106;2023-02-01T13:54:30;10.02;;;2.63;;
46355;SDS011;32066;49.474;11.106;2023-02-01T13:57:02;10.38;;;3.00;;
46355;SDS011;32066;49.474;11.106;2023-02-01T14:06:14;8.65;;;2.25;;
46355;SDS011;32066;49.474;11.106;2023-02-01T14:09:10;13.35;;;2.63;;
46355;SDS011;32066;49.474;11.106;2023-02-01T14:11:42;9.13;;;2.22;;
46355;SDS011;32066;49.474;11.106;2023-02-01T14:14:37;11.00;;;2.70;;
46355;SDS011;32066;49.474;11.106;2023-02-01T14:23:24;8.70;;;2.50;;
46355;SDS011;32066;49.474;11.106;2023-02-01T14:26:03;12.40;;;2.92;;
46355;SDS011;32066;49.474;11.106;2023-02-01T14:28:39;10.68;;;2.50;;
46355;SDS011;32066;49.474;11.106;2023-02-01T14:31:17;11.20;;;2.70;;
46355;SDS011;32066;49.474;11.106;2023-02-01T14:33:58;10.88;;;3.55;;
46355;SDS011;32066;49.474;11.106;2023-02-01T14:36:38;12.95;;;3.22;;
46355;SDS011;32066;49.474;11.106;2023-02-01T14:39:19;12.80;;;2.83;;
46355;SDS011;32066;49.474;11.106;2023-02-01T14:41:59;12.85;;;2.50;;
46355;SDS011;32066;49.474;11.106;2023-02-01T14:44:32;12.60;;;2.78;;
46355;SDS011;32066;49.474;11.106;2023-02-01T14:47:07;11.27;;;2.83;;
46355;SDS011;32066;49.474;11.106;2023-02-01T14:50:11;13.90;;;3.67;;
46355;SDS011;32066;49.474;11.106;2023-02-01T14:52:50;16.50;;;3.20;;
46355;SDS011;32066;49.474;11.106;2023-02-01T14:55:30;10.48;;;2.72;;
46355;SDS011;32066;49.474;11.106;2023-02-01T14:58:05;9.52;;;2.63;;
46355;SDS011;32066;49.474;11.106;2023-02-01T15:00:46;9.13;;;2.47;;
46355;SDS011;32066;49.474;11.106;2023-02-01T15:03:23;11.77;;;3.22;;
46355;SDS011;32066;49.474;11.106;2023-02-01T15:06:12;9.63;;;2.42;;
46355;SDS011;32066;49.474;11.106;2023-02-01T15:08:52;12.30;;;2.60;;
46355;SDS011;32066;49.474;11.106;2023-02-01T15:11:24;10.93;;;2.35;;
46355;SDS011;32066;49.474;11.106;2023-02-01T15:13:53;10.15;;;2.88;;
46355;SDS011;32066;49.474;11.106;2023-02-01T15:16:23;12.57;;;3.00;;
46355;SDS011;32066;49.474;11.106;2023-02-01T15:19:08;10.65;;;2.78;;
46355;SDS011;32066;49.474;11.106;2023-02-01T15:21:44;13.48;;;2.95;;
46355;SDS011;32066;49.474;11.106;2023-02-01T15:24:14;11.57;;;2.45;;
46355;SDS011;32066;49.474;11.106;2023-02-01T15:26:49;10.25;;;2.63;;
46355;SDS011;32066;49.474;11.106;2023-02-01T15:29:19;11.88;;;3.15;;
46355;SDS011;32066;49.474;11.106;2023-02-01T15:31:51;10.52;;;2.83;;
46355;SDS011;32066;49.474;11.106;2023-02-01T15:34:19;11.68;;;3.22;;
46355;SDS011;32066;49.474;11.106;2023-02-01T15:36:48;13.18;;;3.30;;
46355;SDS011;32066;49.474;11.106;2023-02-01T15:39:17;12.00;;;3.00;;
46355;SDS011;32066;49.474;11.106;2023-02-01T15:41:54;12.25;;;2.75;;
46355;SDS011;32066;49.474;11.106;2023-02-01T15:44:31;15.68;;;3.42;;
46355;SDS011;32066;49.474;11.106;2023-02-01T15:47:06;8.85;;;3.00;;
46355;SDS011;32066;49.474;11.106;2023-02-01T15:49:41;12.65;;;3.05;;
46355;SDS011;32066;49.474;11.106;2023-02-01T15:52:15;12.85;;;3.60;;
46355;SDS011;32066;49.474;11.106;2023-02-01T15:54:49;11.27;;;2.70;;
46355;SDS011;32066;49.474;11.106;2023-02-01T15:57:20;13.77;;;2.70;;
46355;SDS011;32066;49.474;11.106;2023-02-01T15:59:55;14.48;;;3.42;;
46355;SDS011;32066;49.474;11.106;2023-02-01T16:02:28;10.63;;;2.58;;